sensor_id;sensor_type;location;lat;lon;timestamp;pressure;altitude;pressure_sealevel;temperature;humidity
49194;BME280;35029;50.804;12.866;2022-12-24T00:02:21;96507.19;;;9.09;100.00
49194;BME280;35029;50.804;12.866;2022-12-24T00:04:47;96509.66;;;9.04;100.00
49194;BME280;35029;50.804;12.866;2022-12-24T00:07:13;96518.84;;;9.02;100.00
49194;BME280;35029;50.804;12.866;2022-12-24T00:09:39;96514.88;;;8.86;100.00
49194;BME280;35029;50.804;12.866;2022-12-24T00:12:05;96517.72;;;8.84;100.00
49194;BME280;35029;50.804;12.866;2022-12-24T00:14:30;96526.09;;;8.81;100.00
49194;BME280;35029;50.804;12.866;2022-12-24T00:16:56;96535.66;;;8.82;100.00
49194;BME280;35029;50.804;12.866;2022-12-24T00:19:21;96536.22;;;8.84;100.00
49194;BME280;35029;50.804;12.866;2022-12-24T00:21:47;96536.78;;;8.93;100.00
49194;BME280;35029;50.804;12.866;2022-12-24T00:24:13;96544.50;;;8.94;100.00
49194;BME280;35029;50.804;12.866;2022-12-24T00:26:39;96530.38;;;8.82;100.00
49194;BME280;35029;50.804;12.866;2022-12-24T00:29:05;96543.47;;;8.95;100.00
49194;BME280;35029;50.804;12.866;2022-12-24T00:31:30;96544.06;;;8.98;100.00
49194;BME280;35029;50.804;12.866;2022-12-24T00:33:56;96542.63;;;9.02;100.00
49194;BME280;35029;50.804;12.866;2022-12-24T00:36:22;96545.44;;;9.07;100.00
49194;BME280;35029;50.804;12.866;2022-12-24T00:38:47;96555.13;;;9.13;98.68
49194;BME280;35029;50.804;12.866;2022-12-24T00:41:13;96551.09;;;9.10;98.79
49194;BME280;35029;50.804;12.866;2022-12-24T00:43:56;96554.97;;;9.08;99.61
49194;BME280;35029;50.804;12.866;2022-12-24T00:46:24;96569.22;;;9.07;99.89
49194;BME280;35029;50.804;12.866;2022-12-24T00:48:50;96569.63;;;9.04;99.63
49194;BME280;35029;50.804;12.866;2022-12-24T00:51:15;96558.53;;;8.95;100.00
49194;BME280;35029;50.804;12.866;2022-12-24T00:53:42;96571.69;;;9.02;99.53
49194;BME280;35029;50.804;12.866;2022-12-24T00:56:08;96581.03;;;9.04;100.00
49194;BME280;35029;50.804;12.866;2022-12-24T00:58:34;96583.28;;;9.01;100.00
49194;BME280;35029;50.804;12.866;2022-12-24T01:00:59;96591.25;;;8.94;100.00
49194;BME280;35029;50.804;12.866;2022-12-24T01:03:25;96581.78;;;8.86;100.00
49194;BME280;35029;50.804;12.866;2022-12-24T01:06:13;96592.75;;;8.83;100.00
49194;BME280;35029;50.804;12.866;2022-12-24T01:08:40;96579.78;;;8.75;100.00
49194;BME280;35029;50.804;12.866;2022-12-24T01:11:07;96592.16;;;8.81;100.00
49194;BME280;35029;50.804;12.866;2022-12-24T01:13:34;96601.28;;;8.85;100.00
49194;BME280;35029;50.804;12.866;2022-12-24T01:15:59;96590.50;;;8.87;100.00
49194;BME280;35029;50.804;12.866;2022-12-24T01:18:25;96587.66;;;8.82;100.00
49194;BME280;35029;50.804;12.866;2022-12-24T01:20:59;96593.97;;;8.80;100.00
49194;BME280;35029;50.804;12.866;2022-12-24T01:23:26;96605.94;;;8.83;100.00
49194;BME280;35029;50.804;12.866;2022-12-24T01:25:54;96598.63;;;8.85;100.00
49194;BME280;35029;50.804;12.866;2022-12-24T01:28:21;96598.81;;;8.90;100.00
49194;BME280;35029;50.804;12.866;2022-12-24T01:30:47;96600.41;;;8.91;100.00
49194;BME280;35029;50.804;12.866;2022-12-24T01:33:14;96599.84;;;8.89;100.00
49194;BME280;35029;50.804;12.866;2022-12-24T01:35:41;96607.16;;;8.87;100.00
49194;BME280;35029;50.804;12.866;2022-12-24T01:38:07;96618.69;;;8.93;100.00
49194;BME280;35029;50.804;12.866;2022-12-24T01:40:33;96613.41;;;8.93;100.00
49194;BME280;35029;50.804;12.866;2022-12-24T01:43:20;96619.31;;;8.95;100.00
49194;BME280;35029;50.804;12.866;2022-12-24T01:45:50;96616.03;;;9.00;100.00
49194;BME280;35029;50.804;12.866;2022-12-24T01:53:54;96625.63;;;8.94;100.00
49194;BME280;35029;50.804;12.866;2022-12-24T01:56:21;96624.81;;;8.93;100.00
49194;BME280;35029;50.804;12.866;2022-12-24T01:58:51;96649.41;;;8.94;100.00
49194;BME280;35029;50.804;12.866;2022-12-24T02:01:18;96639.69;;;8.88;100.00
49194;BME280;35029;50.804;12.866;2022-12-24T02:03:43;96639.69;;;8.88;100.00
49194;BME280;35029;50.804;12.866;2022-12-24T02:06:09;96642.13;;;8.89;100.00
49194;BME280;35029;50.804;12.866;2022-12-24T02:08:39;96648.03;;;8.85;100.00
49194;BME280;35029;50.804;12.866;2022-12-24T02:11:23;96645.59;;;8.83;100.00
49194;BME280;35029;50.804;12.866;2022-12-24T02:13:55;96637.13;;;8.74;100.00
49194;BME280;35029;50.804;12.866;2022-12-24T02:27:16;96652.69;;;8.89;100.00
49194;BME280;35029;50.804;12.866;2022-12-24T02:29:58;96614.41;;;8.60;100.00
49194;BME280;35029;50.804;12.866;2022-12-24T02:32:43;96667.53;;;8.90;100.00
49194;BME280;35029;50.804;12.866;2022-12-24T02:35:15;96665.91;;;8.89;100.00
49194;BME280;35029;50.804;12.866;2022-12-24T02:37:47;96686.63;;;8.92;100.00
49194;BME280;35029;50.804;12.866;2022-12-24T02:40:22;96683.19;;;8.92;100.00
49194;BME280;35029;50.804;12.866;2022-12-24T02:42:54;96681.34;;;8.92;100.00
49194;BME280;35029;50.804;12.866;2022-12-24T02:45:41;96676.91;;;8.86;100.00
49194;BME280;35029;50.804;12.866;2022-12-24T02:48:11;96663.91;;;8.78;100.00
49194;BME280;35029;50.804;12.866;2022-12-24T02:50:38;96689.91;;;8.88;100.00
49194;BME280;35029;50.804;12.866;2022-12-24T02:53:05;96666.59;;;8.71;100.00
49194;BME280;35029;50.804;12.866;2022-12-24T02:55:45;96693.97;;;8.90;100.00
49194;BME280;35029;50.804;12.866;2022-12-24T03:04:21;96721.00;;;8.86;100.00
49194;BME280;35029;50.804;12.866;2022-12-24T03:07:28;96714.50;;;8.88;100.00
49194;BME280;35029;50.804;12.866;2022-12-24T03:11:08;96727.13;;;8.86;100.00
49194;BME280;35029;50.804;12.866;2022-12-24T03:13:17;96728.34;;;8.84;100.00
49194;BME280;35029;50.804;12.866;2022-12-24T03:15:45;96722.88;;;8.78;100.00
49194;BME280;35029;50.804;12.866;2022-12-24T03:18:14;96723.44;;;8.80;100.00
49194;BME280;35029;50.804;12.866;2022-12-24T03:20:44;96730.59;;;8.80;100.00
49194;BME280;35029;50.804;12.866;2022-12-24T03:23:12;96728.56;;;8.75;100.00
49194;BME280;35029;50.804;12.866;2022-12-24T03:25:40;96729.59;;;8.74;100.00
49194;BME280;35029;50.804;12.866;2022-12-24T03:28:08;96744.00;;;8.85;100.00
49194;BME280;35029;50.804;12.866;2022-12-24T03:30:37;96729.56;;;8.81;100.00
49194;BME280;35029;50.804;12.866;2022-12-24T03:33:03;96733.25;;;8.67;100.00
49194;BME280;35029;50.804;12.866;2022-12-24T03:35:29;96740.13;;;8.81;100.00
49194;BME280;35029;50.804;12.866;2022-12-24T03:37:54;96755.16;;;8.80;100.00
49194;BME280;35029;50.804;12.866;2022-12-24T03:40:21;96756.22;;;8.79;100.00
49194;BME280;35029;50.804;12.866;2022-12-24T03:42:46;96758.84;;;8.79;100.00
49194;BME280;35029;50.804;12.866;2022-12-24T03:45:12;96758.22;;;8.77;100.00
49194;BME280;35029;50.804;12.866;2022-12-24T03:47:37;96755.81;;;8.69;100.00
49194;BME280;35029;50.804;12.866;2022-12-24T03:50:05;96760.06;;;8.77;100.00
49194;BME280;35029;50.804;12.866;2022-12-24T03:52:30;96777.16;;;8.68;100.00
49194;BME280;35029;50.804;12.866;2022-12-24T03:54:56;96777.97;;;8.61;100.00
49194;BME280;35029;50.804;12.866;2022-12-24T03:57:22;96776.16;;;8.62;100.00
49194;BME280;35029;50.804;12.866;2022-12-24T03:59:48;96785.72;;;8.63;100.00
49194;BME280;35029;50.804;12.866;2022-12-24T04:02:14;96794.84;;;8.67;100.00
49194;BME280;35029;50.804;12.866;2022-12-24T04:04:40;96801.75;;;8.68;100.00
49194;BME280;35029;50.804;12.866;2022-12-24T04:07:07;96802.56;;;8.62;100.00
49194;BME280;35029;50.804;12.866;2022-12-24T04:09:32;96810.94;;;8.59;100.00
49194;BME280;35029;50.804;12.866;2022-12-24T04:11:58;96820.25;;;8.61;100.00
49194;BME280;35029;50.804;12.866;2022-12-24T04:14:24;96821.06;;;8.62;100.00
49194;BME280;35029;50.804;12.866;2022-12-24T04:16:50;96825.53;;;8.61;100.00
49194;BME280;35029;50.804;12.866;2022-12-24T04:19:16;96833.66;;;8.60;100.00
49194;BME280;35029;50.804;12.866;2022-12-24T04:21:42;96834.69;;;8.59;99.92
49194;BME280;35029;50.804;12.866;2022-12-24T04:24:07;96836.94;;;8.62;100.00
49194;BME280;35029;50.804;12.866;2022-12-24T04:26:33;96847.06;;;8.58;98.79
49194;BME280;35029;50.804;12.866;2022-12-24T04:28:58;96836.50;;;8.58;98.18
49194;BME280;35029;50.804;12.866;2022-12-24T04:31:25;96844.44;;;8.58;97.41
49194;BME280;35029;50.804;12.866;2022-12-24T04:33:51;96850.50;;;8.66;97.17
49194;BME280;35029;50.804;12.866;2022-12-24T04:36:18;96861.50;;;8.62;97.73
49194;BME280;35029;50.804;12.866;2022-12-24T04:39:05;96862.50;;;8.61;96.64
49194;BME280;35029;50.804;12.866;2022-12-24T04:41:31;96868.41;;;8.63;96.30
49194;BME280;35029;50.804;12.866;2022-12-24T04:43:57;96871.66;;;8.66;96.68
49194;BME280;35029;50.804;12.866;2022-12-24T04:46:25;96885.28;;;8.62;95.52
49194;BME280;35029;50.804;12.866;2022-12-24T04:48:52;96882.84;;;8.61;96.04
49194;BME280;35029;50.804;12.866;2022-12-24T04:51:19;96889.97;;;8.60;95.63
49194;BME280;35029;50.804;12.866;2022-12-24T04:53:45;96886.28;;;8.55;96.80
49194;BME280;35029;50.804;12.866;2022-12-24T04:56:13;96888.75;;;8.50;96.76
49194;BME280;35029;50.804;12.866;2022-12-24T04:58:39;96891.78;;;8.46;96.98
49194;BME280;35029;50.804;12.866;2022-12-24T05:01:07;96896.47;;;8.51;95.53
49194;BME280;35029;50.804;12.866;2022-12-24T05:03:37;96898.09;;;8.45;95.87
49194;BME280;35029;50.804;12.866;2022-12-24T05:06:08;96885.84;;;8.38;96.18
49194;BME280;35029;50.804;12.866;2022-12-24T05:08:35;96906.59;;;8.48;95.72
49194;BME280;35029;50.804;12.866;2022-12-24T05:11:01;96901.31;;;8.48;96.22
49194;BME280;35029;50.804;12.866;2022-12-24T05:13:27;96901.28;;;8.41;95.79
49194;BME280;35029;50.804;12.866;2022-12-24T05:15:54;96904.34;;;8.44;94.77
49194;BME280;35029;50.804;12.866;2022-12-24T05:18:20;96908.63;;;8.39;94.89
49194;BME280;35029;50.804;12.866;2022-12-24T05:20:47;96922.84;;;8.44;94.53
49194;BME280;35029;50.804;12.866;2022-12-24T05:23:18;96912.69;;;8.41;94.44
49194;BME280;35029;50.804;12.866;2022-12-24T05:26:09;96920.19;;;8.38;94.88
49194;BME280;35029;50.804;12.866;2022-12-24T05:28:47;96920.38;;;8.36;94.04
49194;BME280;35029;50.804;12.866;2022-12-24T05:31:13;96934.19;;;8.38;94.34
49194;BME280;35029;50.804;12.866;2022-12-24T05:33:38;96942.94;;;8.32;94.72
49194;BME280;35029;50.804;12.866;2022-12-24T05:36:04;96946.00;;;8.36;94.25
49194;BME280;35029;50.804;12.866;2022-12-24T05:38:30;96935.59;;;8.34;93.61
49194;BME280;35029;50.804;12.866;2022-12-24T05:40:56;96941.09;;;8.33;94.19
49194;BME280;35029;50.804;12.866;2022-12-24T05:43:21;96939.84;;;8.22;93.84
49194;BME280;35029;50.804;12.866;2022-12-24T05:45:47;96940.69;;;8.22;93.76
49194;BME280;35029;50.804;12.866;2022-12-24T05:48:12;96925.78;;;8.01;93.68
49194;BME280;35029;50.804;12.866;2022-12-24T05:50:39;96967.47;;;8.19;93.48
49194;BME280;35029;50.804;12.866;2022-12-24T05:53:05;96973.56;;;8.13;94.16
49194;BME280;35029;50.804;12.866;2022-12-24T05:55:32;96969.06;;;8.07;93.76
49194;BME280;35029;50.804;12.866;2022-12-24T05:57:59;96984.50;;;8.03;93.66
49194;BME280;35029;50.804;12.866;2022-12-24T06:00:24;96986.28;;;7.96;92.93
49194;BME280;35029;50.804;12.866;2022-12-24T06:02:50;96990.16;;;7.93;93.08
49194;BME280;35029;50.804;12.866;2022-12-24T06:05:15;96989.06;;;7.88;93.51
49194;BME280;35029;50.804;12.866;2022-12-24T06:07:41;97004.31;;;7.86;93.23
49194;BME280;35029;50.804;12.866;2022-12-24T06:10:07;97007.91;;;7.78;93.09
49194;BME280;35029;50.804;12.866;2022-12-24T06:12:33;96986.97;;;7.70;93.10
49194;BME280;35029;50.804;12.866;2022-12-24T06:14:59;97001.00;;;7.70;92.56
49194;BME280;35029;50.804;12.866;2022-12-24T06:17:25;97022.75;;;7.79;93.70
49194;BME280;35029;50.804;12.866;2022-12-24T06:19:51;97028.81;;;7.79;92.49
49194;BME280;35029;50.804;12.866;2022-12-24T06:22:16;97032.75;;;7.90;92.25
49194;BME280;35029;50.804;12.866;2022-12-24T06:24:42;97035.34;;;7.84;91.87
49194;BME280;35029;50.804;12.866;2022-12-24T06:27:07;97038.78;;;7.77;92.34
49194;BME280;35029;50.804;12.866;2022-12-24T06:29:33;97037.94;;;7.70;93.41
49194;BME280;35029;50.804;12.866;2022-12-24T06:31:59;97040.97;;;7.74;92.44
49194;BME280;35029;50.804;12.866;2022-12-24T06:34:25;97040.78;;;7.75;92.27
49194;BME280;35029;50.804;12.866;2022-12-24T06:36:50;97046.44;;;7.72;92.92
49194;BME280;35029;50.804;12.866;2022-12-24T06:39:17;97067.34;;;7.74;92.68
49194;BME280;35029;50.804;12.866;2022-12-24T06:41:42;97072.44;;;7.75;94.04
49194;BME280;35029;50.804;12.866;2022-12-24T06:44:08;97069.78;;;7.75;93.78
49194;BME280;35029;50.804;12.866;2022-12-24T06:46:35;97081.38;;;7.74;95.95
49194;BME280;35029;50.804;12.866;2022-12-24T06:49:00;97090.50;;;7.72;97.99
49194;BME280;35029;50.804;12.866;2022-12-24T06:51:26;97088.63;;;7.66;99.48
49194;BME280;35029;50.804;12.866;2022-12-24T06:53:51;97068.19;;;7.46;100.00
49194;BME280;35029;50.804;12.866;2022-12-24T06:56:19;97087.28;;;7.48;100.00
49194;BME280;35029;50.804;12.866;2022-12-24T06:58:44;97088.66;;;7.44;100.00
49194;BME280;35029;50.804;12.866;2022-12-24T07:01:13;97090.88;;;7.40;100.00
49194;BME280;35029;50.804;12.866;2022-12-24T07:03:39;97097.34;;;7.38;100.00
49194;BME280;35029;50.804;12.866;2022-12-24T07:06:06;97099.34;;;7.36;100.00
49194;BME280;35029;50.804;12.866;2022-12-24T07:08:32;97100.31;;;7.28;100.00
49194;BME280;35029;50.804;12.866;2022-12-24T07:11:00;97097.47;;;7.30;100.00
49194;BME280;35029;50.804;12.866;2022-12-24T07:13:27;97101.13;;;7.28;100.00
49194;BME280;35029;50.804;12.866;2022-12-24T07:16:01;97111.28;;;7.32;100.00
49194;BME280;35029;50.804;12.866;2022-12-24T07:18:28;97104.94;;;7.26;100.00
49194;BME280;35029;50.804;12.866;2022-12-24T07:20:54;97117.50;;;7.24;100.00
49194;BME280;35029;50.804;12.866;2022-12-24T07:23:20;97115.50;;;7.26;100.00
49194;BME280;35029;50.804;12.866;2022-12-24T07:25:45;97116.69;;;7.23;100.00
49194;BME280;35029;50.804;12.866;2022-12-24T07:28:12;97119.50;;;7.22;100.00
49194;BME280;35029;50.804;12.866;2022-12-24T07:30:37;97122.59;;;7.25;100.00
49194;BME280;35029;50.804;12.866;2022-12-24T07:33:04;97115.63;;;7.18;100.00
49194;BME280;35029;50.804;12.866;2022-12-24T07:35:29;97112.72;;;7.13;100.00
49194;BME280;35029;50.804;12.866;2022-12-24T07:37:55;97134.81;;;7.11;100.00
49194;BME280;35029;50.804;12.866;2022-12-24T07:40:22;97126.34;;;7.16;100.00
49194;BME280;35029;50.804;12.866;2022-12-24T07:42:47;97133.69;;;7.21;100.00
49194;BME280;35029;50.804;12.866;2022-12-24T07:45:13;97137.16;;;7.21;100.00
49194;BME280;35029;50.804;12.866;2022-12-24T07:47:39;97124.47;;;7.10;100.00
49194;BME280;35029;50.804;12.866;2022-12-24T07:50:07;97145.50;;;7.25;100.00
49194;BME280;35029;50.804;12.866;2022-12-24T07:52:33;97148.00;;;7.33;100.00
49194;BME280;35029;50.804;12.866;2022-12-24T07:54:59;97125.38;;;7.17;100.00
49194;BME280;35029;50.804;12.866;2022-12-24T07:57:25;97151.28;;;7.35;100.00
49194;BME280;35029;50.804;12.866;2022-12-24T07:59:51;97159.59;;;7.39;100.00
49194;BME280;35029;50.804;12.866;2022-12-24T08:02:17;97165.06;;;7.37;100.00
49194;BME280;35029;50.804;12.866;2022-12-24T08:04:43;97174.81;;;7.37;100.00
49194;BME280;35029;50.804;12.866;2022-12-24T08:07:09;97170.28;;;7.31;100.00
49194;BME280;35029;50.804;12.866;2022-12-24T08:09:36;97181.28;;;7.34;100.00
49194;BME280;35029;50.804;12.866;2022-12-24T08:12:02;97183.09;;;7.34;100.00
49194;BME280;35029;50.804;12.866;2022-12-24T08:14:28;97183.84;;;7.27;100.00
49194;BME280;35029;50.804;12.866;2022-12-24T08:16:55;97198.53;;;7.37;100.00
49194;BME280;35029;50.804;12.866;2022-12-24T08:19:20;97189.19;;;7.34;100.00
49194;BME280;35029;50.804;12.866;2022-12-24T08:21:46;97192.09;;;7.39;100.00
49194;BME280;35029;50.804;12.866;2022-12-24T08:24:12;97196.34;;;7.40;100.00
49194;BME280;35029;50.804;12.866;2022-12-24T08:26:38;97197.78;;;7.43;100.00
49194;BME280;35029;50.804;12.866;2022-12-24T08:29:05;97198.88;;;7.49;100.00
49194;BME280;35029;50.804;12.866;2022-12-24T08:31:31;97188.06;;;7.43;100.00
49194;BME280;35029;50.804;12.866;2022-12-24T08:34:02;97196.44;;;7.54;100.00
49194;BME280;35029;50.804;12.866;2022-12-24T08:36:28;97194.25;;;7.57;100.00
49194;BME280;35029;50.804;12.866;2022-12-24T08:38:53;97198.34;;;7.60;100.00
49194;BME280;35029;50.804;12.866;2022-12-24T08:41:19;97198.66;;;7.72;100.00
49194;BME280;35029;50.804;12.866;2022-12-24T08:43:45;97207.63;;;7.77;98.28
49194;BME280;35029;50.804;12.866;2022-12-24T08:46:12;97200.09;;;7.74;98.42
49194;BME280;35029;50.804;12.866;2022-12-24T08:48:39;97209.06;;;7.80;97.42
49194;BME280;35029;50.804;12.866;2022-12-24T08:51:06;97220.69;;;7.86;96.35
49194;BME280;35029;50.804;12.866;2022-12-24T08:53:32;97228.41;;;7.87;96.60
49194;BME280;35029;50.804;12.866;2022-12-24T08:56:03;97226.81;;;7.93;95.92
49194;BME280;35029;50.804;12.866;2022-12-24T08:58:29;97226.81;;;7.93;95.15
49194;BME280;35029;50.804;12.866;2022-12-24T09:00:55;97232.94;;;7.93;95.93
49194;BME280;35029;50.804;12.866;2022-12-24T09:03:21;97224.00;;;7.94;95.14
49194;BME280;35029;50.804;12.866;2022-12-24T09:05:47;97230.78;;;8.04;95.50
49194;BME280;35029;50.804;12.866;2022-12-24T09:08:13;97229.38;;;8.08;94.61
49194;BME280;35029;50.804;12.866;2022-12-24T09:10:39;97241.19;;;8.12;94.43
49194;BME280;35029;50.804;12.866;2022-12-24T09:13:05;97236.72;;;8.12;95.24
49194;BME280;35029;50.804;12.866;2022-12-24T09:15:32;97240.19;;;8.13;94.23
49194;BME280;35029;50.804;12.866;2022-12-24T09:18:00;97244.47;;;8.14;94.20
49194;BME280;35029;50.804;12.866;2022-12-24T09:20:25;97241.19;;;8.12;94.46
49194;BME280;35029;50.804;12.866;2022-12-24T09:22:51;97250.75;;;8.13;95.63
49194;BME280;35029;50.804;12.866;2022-12-24T09:25:16;97234.19;;;7.98;95.28
49194;BME280;35029;50.804;12.866;2022-12-24T09:27:43;97214.56;;;7.85;95.81
49194;BME280;35029;50.804;12.866;2022-12-24T09:30:10;97243.09;;;7.97;97.02
49194;BME280;35029;50.804;12.866;2022-12-24T09:32:36;97259.81;;;8.04;97.43
49194;BME280;35029;50.804;12.866;2022-12-24T09:35:04;97273.06;;;8.10;97.31
49194;BME280;35029;50.804;12.866;2022-12-24T09:37:29;97278.59;;;8.16;97.24
49194;BME280;35029;50.804;12.866;2022-12-24T09:39:55;97270.09;;;8.20;97.46
49194;BME280;35029;50.804;12.866;2022-12-24T09:45:17;97279.31;;;8.31;98.48
49194;BME280;35029;50.804;12.866;2022-12-24T09:47:58;97292.13;;;8.34;98.73
49194;BME280;35029;50.804;12.866;2022-12-24T09:55:56;97308.50;;;8.23;100.00
49194;BME280;35029;50.804;12.866;2022-12-24T09:58:34;97297.13;;;8.22;100.00
49194;BME280;35029;50.804;12.866;2022-12-24T10:01:01;97304.59;;;8.19;100.00
49194;BME280;35029;50.804;12.866;2022-12-24T10:03:27;97305.78;;;8.16;100.00
49194;BME280;35029;50.804;12.866;2022-12-24T10:11:29;97308.50;;;8.23;100.00
49194;BME280;35029;50.804;12.866;2022-12-24T10:26:01;97310.97;;;8.53;100.00
49194;BME280;35029;50.804;12.866;2022-12-24T10:28:49;97307.59;;;8.66;100.00
49194;BME280;35029;50.804;12.866;2022-12-24T10:31:18;97311.31;;;8.71;100.00
49194;BME280;35029;50.804;12.866;2022-12-24T10:33:52;97323.19;;;8.89;100.00
49194;BME280;35029;50.804;12.866;2022-12-24T10:36:25;97320.25;;;9.05;100.00
49194;BME280;35029;50.804;12.866;2022-12-24T10:38:51;97308.00;;;8.98;100.00
49194;BME280;35029;50.804;12.866;2022-12-24T10:41:18;97324.56;;;9.20;99.22
49194;BME280;35029;50.804;12.866;2022-12-24T10:43:44;97321.94;;;9.20;97.63
49194;BME280;35029;50.804;12.866;2022-12-24T10:46:22;97330.50;;;9.22;98.68
49194;BME280;35029;50.804;12.866;2022-12-24T10:49:00;97329.44;;;9.16;97.48
49194;BME280;35029;50.804;12.866;2022-12-24T10:51:47;97326.16;;;9.07;98.13
49194;BME280;35029;50.804;12.866;2022-12-24T10:54:20;97324.81;;;8.90;98.50
49194;BME280;35029;50.804;12.866;2022-12-24T10:56:50;97328.47;;;8.89;98.79
49194;BME280;35029;50.804;12.866;2022-12-24T11:01:50;97338.16;;;8.75;100.00
49194;BME280;35029;50.804;12.866;2022-12-24T11:04:19;97337.75;;;8.78;100.00
49194;BME280;35029;50.804;12.866;2022-12-24T11:06:55;97338.09;;;8.68;100.00
49194;BME280;35029;50.804;12.866;2022-12-24T11:09:34;97340.34;;;8.65;100.00
49194;BME280;35029;50.804;12.866;2022-12-24T11:12:04;97347.88;;;8.68;100.00
49194;BME280;35029;50.804;12.866;2022-12-24T11:14:34;97352.72;;;8.64;99.93
49194;BME280;35029;50.804;12.866;2022-12-24T11:17:00;97357.50;;;8.75;99.56
49194;BME280;35029;50.804;12.866;2022-12-24T11:22:01;97357.19;;;8.92;100.00
49194;BME280;35029;50.804;12.866;2022-12-24T11:24:30;97359.38;;;8.88;99.57
49194;BME280;35029;50.804;12.866;2022-12-24T11:32:43;97371.34;;;8.84;99.28
49194;BME280;35029;50.804;12.866;2022-12-24T11:35:20;97370.09;;;8.80;98.98
49194;BME280;35029;50.804;12.866;2022-12-24T11:40:24;97369.72;;;8.83;99.69
49194;BME280;35029;50.804;12.866;2022-12-24T11:42:58;97367.72;;;8.85;99.45
49194;BME280;35029;50.804;12.866;2022-12-24T11:45:26;97376.63;;;8.84;99.63
49194;BME280;35029;50.804;12.866;2022-12-24T11:47:53;97378.47;;;8.84;99.43
49194;BME280;35029;50.804;12.866;2022-12-24T11:52:51;97374.59;;;8.79;98.87
49194;BME280;35029;50.804;12.866;2022-12-24T12:01:11;97389.19;;;8.75;99.46
49194;BME280;35029;50.804;12.866;2022-12-24T12:04:03;97387.34;;;8.76;100.00
49194;BME280;35029;50.804;12.866;2022-12-24T12:06:37;97375.75;;;8.70;100.00
49194;BME280;35029;50.804;12.866;2022-12-24T12:09:18;97381.06;;;8.77;99.76
49194;BME280;35029;50.804;12.866;2022-12-24T12:11:51;97389.38;;;8.74;99.53
49194;BME280;35029;50.804;12.866;2022-12-24T12:14:21;97375.75;;;8.70;100.00
49194;BME280;35029;50.804;12.866;2022-12-24T12:16:58;97392.16;;;8.66;100.00
49194;BME280;35029;50.804;12.866;2022-12-24T12:19:43;97388.69;;;8.65;100.00
49194;BME280;35029;50.804;12.866;2022-12-24T12:22:19;97396.81;;;8.63;100.00
49194;BME280;35029;50.804;12.866;2022-12-24T12:24:50;97399.66;;;8.62;100.00
49194;BME280;35029;50.804;12.866;2022-12-24T12:27:27;97398.81;;;8.61;100.00
49194;BME280;35029;50.804;12.866;2022-12-24T12:30:02;97399.28;;;8.65;100.00
49194;BME280;35029;50.804;12.866;2022-12-24T12:35:25;97395.28;;;8.76;100.00
49194;BME280;35029;50.804;12.866;2022-12-24T12:38:08;97396.78;;;8.85;100.00
49194;BME280;35029;50.804;12.866;2022-12-24T12:51:21;97390.16;;;8.96;97.79
49194;BME280;35029;50.804;12.866;2022-12-24T12:56:32;97400.81;;;9.09;98.06
49194;BME280;35029;50.804;12.866;2022-12-24T13:01:41;97402.66;;;9.16;97.79
49194;BME280;35029;50.804;12.866;2022-12-24T13:18:53;97397.13;;;9.10;95.93
49194;BME280;35029;50.804;12.866;2022-12-24T13:21:26;97395.13;;;9.12;96.79
49194;BME280;35029;50.804;12.866;2022-12-24T13:24:06;97402.81;;;9.07;96.08
49194;BME280;35029;50.804;12.866;2022-12-24T13:26:40;97406.91;;;9.10;96.14
49194;BME280;35029;50.804;12.866;2022-12-24T13:37:34;97420.56;;;9.13;94.25
49194;BME280;35029;50.804;12.866;2022-12-24T13:42:49;97431.91;;;9.07;94.94
49194;BME280;35029;50.804;12.866;2022-12-24T13:47:53;97426.91;;;8.91;95.72
49194;BME280;35029;50.804;12.866;2022-12-24T13:50:43;97434.53;;;9.07;96.30
49194;BME280;35029;50.804;12.866;2022-12-24T13:53:27;97443.63;;;8.98;94.63
49194;BME280;35029;50.804;12.866;2022-12-24T13:55:56;97449.91;;;8.97;93.85
49194;BME280;35029;50.804;12.866;2022-12-24T13:58:24;97437.47;;;8.91;92.45
49194;BME280;35029;50.804;12.866;2022-12-24T14:03:32;97423.34;;;8.77;90.39
49194;BME280;35029;50.804;12.866;2022-12-24T14:06:04;97442.72;;;8.84;91.06
49194;BME280;35029;50.804;12.866;2022-12-24T14:08:38;97442.28;;;8.80;91.56
49194;BME280;35029;50.804;12.866;2022-12-24T14:18:40;97459.84;;;8.67;93.15
49194;BME280;35029;50.804;12.866;2022-12-24T14:21:23;97458.41;;;8.64;93.54
49194;BME280;35029;50.804;12.866;2022-12-24T14:24:00;97473.25;;;8.65;92.92
49194;BME280;35029;50.804;12.866;2022-12-24T14:26:29;97471.00;;;8.62;93.75
49194;BME280;35029;50.804;12.866;2022-12-24T14:29:01;97477.94;;;8.63;94.14
49194;BME280;35029;50.804;12.866;2022-12-24T14:31:27;97472.66;;;8.63;94.44
49194;BME280;35029;50.804;12.866;2022-12-24T14:34:07;97474.84;;;8.59;94.01
49194;BME280;35029;50.804;12.866;2022-12-24T14:36:34;97480.13;;;8.59;94.34
49194;BME280;35029;50.804;12.866;2022-12-24T14:39:00;97478.88;;;8.55;94.93
49194;BME280;35029;50.804;12.866;2022-12-24T14:41:38;97483.16;;;8.56;95.63
49194;BME280;35029;50.804;12.866;2022-12-24T14:47:36;97492.06;;;8.55;95.95
49194;BME280;35029;50.804;12.866;2022-12-24T14:50:30;97487.78;;;8.54;95.53
49194;BME280;35029;50.804;12.866;2022-12-24T14:55:44;97496.28;;;8.50;96.56
49194;BME280;35029;50.804;12.866;2022-12-24T14:58:30;97495.44;;;8.49;96.32
49194;BME280;35029;50.804;12.866;2022-12-24T15:01:15;97502.75;;;8.47;96.05
49194;BME280;35029;50.804;12.866;2022-12-24T15:03:43;97499.28;;;8.46;96.62
49194;BME280;35029;50.804;12.866;2022-12-24T15:06:10;97495.19;;;8.44;96.29
49194;BME280;35029;50.804;12.866;2022-12-24T15:08:42;97509.19;;;8.44;95.92
49194;BME280;35029;50.804;12.866;2022-12-24T15:11:14;97503.47;;;8.41;95.60
49194;BME280;35029;50.804;12.866;2022-12-24T15:13:44;97509.72;;;8.55;98.09
49194;BME280;35029;50.804;12.866;2022-12-24T15:16:13;97521.50;;;8.52;96.84
49194;BME280;35029;50.804;12.866;2022-12-24T15:18:55;97528.25;;;8.40;96.13
49194;BME280;35029;50.804;12.866;2022-12-24T15:21:35;97524.72;;;8.33;95.88